createdAt,value
2022-11-17T00:01:11.641Z,33.68
2022-11-17T00:03:38.188Z,33.72
2022-11-17T00:06:04.354Z,33.75
2022-11-17T00:08:30.703Z,33.76
2022-11-17T00:10:57.044Z,33.74
2022-11-17T00:13:23.420Z,33.75
2022-11-17T00:15:49.768Z,33.72
2022-11-17T00:18:16.115Z,33.73
2022-11-17T00:20:42.458Z,33.72
2022-11-17T00:23:08.810Z,33.72
2022-11-17T00:25:35.172Z,33.76
2022-11-17T00:28:01.517Z,33.74
2022-11-17T00:30:29.176Z,33.75
2022-11-17T00:32:54.240Z,33.79
2022-11-17T00:35:20.583Z,33.77
2022-11-17T00:37:46.966Z,33.78
2022-11-17T00:40:13.345Z,33.82
2022-11-17T00:42:39.693Z,33.80
2022-11-17T00:45:06.034Z,33.85
2022-11-17T00:47:32.391Z,33.83
2022-11-17T00:49:58.733Z,33.84
2022-11-17T00:52:25.089Z,33.92
2022-11-17T00:54:51.437Z,33.86
2022-11-17T00:57:17.843Z,33.87
2022-11-17T00:59:44.163Z,33.87
2022-11-17T01:02:10.515Z,33.86
2022-11-17T01:04:36.884Z,33.90
2022-11-17T01:07:03.282Z,33.87
2022-11-17T01:09:29.574Z,33.88
2022-11-17T01:11:55.953Z,33.90
2022-11-17T01:17:04.576Z,33.94
2022-11-17T01:19:30.953Z,33.96
2022-11-17T01:21:57.306Z,33.92
2022-11-17T01:24:23.653Z,33.96
2022-11-17T01:26:49.992Z,33.94
2022-11-17T01:29:16.368Z,33.92
2022-11-17T01:31:43.695Z,33.96
2022-11-17T01:34:09.069Z,33.97
2022-11-17T01:36:35.411Z,33.93
2022-11-17T01:39:01.766Z,33.99
2022-11-17T01:41:28.119Z,34.01
2022-11-17T01:43:54.463Z,34.03
2022-11-17T01:46:20.805Z,34.05
2022-11-17T01:48:47.152Z,34.04
2022-11-17T01:51:13.494Z,34.03
2022-11-17T01:53:39.852Z,34.04
2022-11-17T01:56:06.196Z,34.08
2022-11-17T01:58:32.544Z,34.08
2022-11-17T02:00:58.933Z,34.07
2022-11-17T02:03:25.280Z,34.07
2022-11-17T02:05:51.622Z,34.07
2022-11-17T02:08:18.011Z,34.06
2022-11-17T02:10:48.674Z,34.12
2022-11-17T02:13:10.693Z,34.15
2022-11-17T02:15:37.033Z,34.15
2022-11-17T02:18:03.437Z,34.14
2022-11-17T02:20:29.773Z,34.14
2022-11-17T02:22:56.161Z,34.15
2022-11-17T02:25:26.860Z,34.14
2022-11-17T02:27:48.925Z,34.13
2022-11-17T02:30:15.330Z,34.13
2022-11-17T02:32:41.655Z,34.16
2022-11-17T02:35:08.000Z,34.15
2022-11-17T02:37:34.350Z,34.14
2022-11-17T02:40:00.702Z,34.18
2022-11-17T02:42:27.080Z,34.16
2022-11-17T02:44:53.427Z,34.15
2022-11-17T02:47:22.218Z,34.21
2022-11-17T02:49:48.564Z,34.20
2022-11-17T02:52:14.916Z,34.21
2022-11-17T02:54:41.395Z,34.21
2022-11-17T02:57:07.743Z,34.25
2022-11-17T02:59:34.090Z,34.25
2022-11-17T03:02:01.828Z,34.28
2022-11-17T03:04:26.799Z,34.28
2022-11-17T03:06:53.174Z,34.25
2022-11-17T03:09:19.493Z,34.27
2022-11-17T03:11:45.840Z,34.28
2022-11-17T03:14:12.185Z,34.35
2022-11-17T03:16:38.543Z,34.31
2022-11-17T03:19:04.887Z,34.32
2022-11-17T03:21:31.260Z,34.33
2022-11-17T03:23:57.603Z,34.34
2022-11-17T03:26:23.967Z,34.31
2022-11-17T03:28:50.316Z,34.29
2022-11-17T03:31:16.667Z,34.27
2022-11-17T03:33:43.015Z,34.29
2022-11-17T03:36:09.363Z,34.26
2022-11-17T03:38:35.711Z,34.29
2022-11-17T03:41:02.065Z,34.32
2022-11-17T03:43:28.404Z,34.31
2022-11-17T03:45:55.957Z,34.32
2022-11-17T03:48:21.122Z,34.30
2022-11-17T03:50:47.482Z,34.31
2022-11-17T03:53:13.826Z,34.33
2022-11-17T03:55:40.184Z,34.32
2022-11-17T03:58:06.536Z,34.34
2022-11-17T04:00:32.885Z,34.32
2022-11-17T04:02:59.248Z,34.30
2022-11-17T04:05:25.583Z,34.31
2022-11-17T04:07:51.936Z,34.32
2022-11-17T04:10:18.286Z,34.29
2022-11-17T04:12:44.633Z,34.30
2022-11-17T04:15:10.995Z,34.33
2022-11-17T04:17:37.341Z,34.33
2022-11-17T04:20:03.691Z,34.33
2022-11-17T04:22:30.039Z,34.39
2022-11-17T04:24:56.387Z,34.33
2022-11-17T04:27:22.745Z,34.31
2022-11-17T04:29:49.087Z,34.32
2022-11-17T04:32:15.430Z,34.31
2022-11-17T04:34:41.778Z,34.32
2022-11-17T04:37:08.402Z,34.34
2022-11-17T04:39:34.466Z,34.36
2022-11-17T04:42:00.811Z,34.39
2022-11-17T04:44:27.158Z,34.40
2022-11-17T04:46:53.511Z,34.40
2022-11-17T04:49:19.845Z,34.33
2022-11-17T04:51:46.202Z,34.39
2022-11-17T04:54:12.551Z,34.36
2022-11-17T04:56:38.899Z,34.37
2022-11-17T04:59:05.232Z,34.34
2022-11-17T05:01:31.591Z,34.29
2022-11-17T05:03:57.935Z,34.29
2022-11-17T05:06:24.353Z,34.37
2022-11-17T05:08:50.697Z,34.38
2022-11-17T05:11:17.123Z,34.31
2022-11-17T05:13:43.395Z,34.32
2022-11-17T05:16:09.747Z,34.29
2022-11-17T05:18:36.095Z,34.31
2022-11-17T05:21:02.440Z,34.34
2022-11-17T05:23:28.787Z,34.37
2022-11-17T05:25:55.142Z,34.36
2022-11-17T05:28:21.489Z,34.36
2022-11-17T05:30:47.838Z,34.39
2022-11-17T05:33:14.196Z,34.42
2022-11-17T05:35:40.564Z,34.78
2022-11-17T05:38:06.935Z,34.60
2022-11-17T05:40:33.285Z,34.63
2022-11-17T05:42:59.624Z,34.65
2022-11-17T05:45:25.981Z,34.58
2022-11-17T05:47:52.321Z,34.58
2022-11-17T05:50:18.674Z,34.51
2022-11-17T05:52:45.016Z,34.55
2022-11-17T05:55:11.382Z,34.64
2022-11-17T05:57:37.724Z,34.59
2022-11-17T06:00:04.079Z,34.55
2022-11-17T06:02:30.420Z,34.55
2022-11-17T06:04:56.765Z,34.54
2022-11-17T06:07:23.210Z,34.50
2022-11-17T06:09:49.468Z,34.48
2022-11-17T06:12:15.844Z,34.47
2022-11-17T06:14:42.194Z,34.43
2022-11-17T06:17:08.566Z,34.48
2022-11-17T06:19:34.916Z,34.49
2022-11-17T06:22:16.588Z,34.55
2022-11-17T06:24:27.611Z,34.59
2022-11-17T06:26:53.953Z,34.61
2022-11-17T06:29:20.302Z,34.68
2022-11-17T06:31:46.663Z,34.67
2022-11-17T06:34:14.110Z,34.78
2022-11-17T06:36:40.452Z,34.77
2022-11-17T06:39:06.813Z,34.81
2022-11-17T06:41:33.161Z,34.87
2022-11-17T06:43:59.524Z,34.89
2022-11-17T06:46:25.866Z,34.88
2022-11-17T06:48:52.239Z,34.94
2022-11-17T06:51:18.580Z,34.96
2022-11-17T06:53:45.017Z,34.96
2022-11-17T06:56:11.400Z,34.97
2022-11-17T06:58:38.120Z,35.04
2022-11-17T07:01:04.230Z,35.08
2022-11-17T07:03:30.636Z,35.19
2022-11-17T07:05:57.008Z,35.29
2022-11-17T07:08:23.630Z,35.28
2022-11-17T07:10:50.015Z,35.38
2022-11-17T07:13:16.464Z,35.40
2022-11-17T07:15:42.846Z,35.38
2022-11-17T07:18:09.290Z,35.54
2022-11-17T07:20:35.688Z,35.45
2022-11-17T07:23:02.116Z,35.53
2022-11-17T07:25:28.484Z,35.45
2022-11-17T07:27:54.904Z,35.48
2022-11-17T07:30:21.320Z,35.56
2022-11-17T07:32:53.415Z,35.48
2022-11-17T07:35:14.172Z,35.50
2022-11-17T07:37:40.599Z,35.52
2022-11-17T07:40:06.979Z,35.54
2022-11-17T07:42:33.407Z,35.54
2022-11-17T07:44:59.790Z,35.54
2022-11-17T07:47:27.267Z,35.57
2022-11-17T07:49:53.649Z,35.61
2022-11-17T07:52:20.089Z,35.62
2022-11-17T07:54:46.488Z,35.65
2022-11-17T07:57:12.911Z,35.61
2022-11-17T07:59:39.295Z,35.62
2022-11-17T08:02:05.734Z,35.71
2022-11-17T08:04:33.315Z,35.66
2022-11-17T08:06:58.571Z,35.64
2022-11-17T08:09:24.913Z,35.73
2022-11-17T08:11:51.345Z,35.79
2022-11-17T08:14:17.721Z,35.73
2022-11-17T08:16:44.161Z,35.56
2022-11-17T08:19:13.187Z,35.86
2022-11-17T08:21:39.611Z,35.84
2022-11-17T08:24:05.999Z,35.76
2022-11-17T08:26:32.431Z,35.75
2022-11-17T08:28:59.147Z,35.70
2022-11-17T08:31:25.278Z,35.74
2022-11-17T08:33:51.645Z,35.76
2022-11-17T08:36:18.069Z,35.83
2022-11-17T08:38:44.472Z,35.68
2022-11-17T08:41:11.839Z,35.63
2022-11-17T08:43:37.282Z,35.60
2022-11-17T08:46:03.717Z,35.58
2022-11-17T08:48:30.097Z,35.59
2022-11-17T08:50:56.513Z,35.58
2022-11-17T08:53:22.935Z,35.67
2022-11-17T08:55:49.408Z,35.65
2022-11-17T08:58:15.740Z,35.67
2022-11-17T09:00:42.188Z,35.62
2022-11-17T09:03:08.600Z,35.68
2022-11-17T09:05:35.097Z,35.78
2022-11-17T09:08:16.410Z,35.88
2022-11-17T09:10:27.898Z,35.92
2022-11-17T09:12:54.294Z,35.90
2022-11-17T09:15:20.746Z,35.97
2022-11-17T09:17:47.135Z,36.00
2022-11-17T09:20:13.561Z,35.92
2022-11-17T09:22:39.974Z,36.03
2022-11-17T09:25:11.872Z,36.00
2022-11-17T09:27:32.806Z,36.07
2022-11-17T09:29:59.225Z,35.95
2022-11-17T09:32:25.604Z,36.00
2022-11-17T09:34:52.040Z,36.02
2022-11-17T09:37:18.360Z,36.08
2022-11-17T09:39:44.783Z,36.10
2022-11-17T09:42:11.134Z,36.00
2022-11-17T09:44:37.577Z,35.90
2022-11-17T09:47:03.990Z,35.99
2022-11-17T09:49:30.414Z,35.89
2022-11-17T09:51:56.771Z,35.90
2022-11-17T09:54:23.200Z,35.90
2022-11-17T09:56:49.546Z,35.66
2022-11-17T09:59:15.953Z,35.69
2022-11-17T10:01:42.398Z,35.72
2022-11-17T10:04:08.713Z,35.76
2022-11-17T10:06:35.058Z,35.80
2022-11-17T10:09:01.461Z,35.83
2022-11-17T10:11:27.829Z,35.77
2022-11-17T10:13:54.226Z,35.78
2022-11-17T10:16:22.771Z,35.76
2022-11-17T10:18:49.185Z,35.75
2022-11-17T10:21:15.539Z,35.75
2022-11-17T10:23:46.575Z,35.71
2022-11-17T10:26:08.390Z,35.74
2022-11-17T10:28:34.780Z,35.76
2022-11-17T10:31:01.142Z,35.82
2022-11-17T10:33:27.550Z,35.84
2022-11-17T10:35:53.902Z,35.95
2022-11-17T10:38:20.299Z,36.00
2022-11-17T10:40:46.658Z,36.07
2022-11-17T10:43:13.058Z,36.00
2022-11-17T10:45:39.411Z,36.12
2022-11-17T10:48:05.829Z,36.19
2022-11-17T10:50:32.239Z,36.17
2022-11-17T10:52:58.648Z,36.05
2022-11-17T10:55:25.006Z,36.05
2022-11-17T10:57:51.457Z,36.11
2022-11-17T11:00:17.811Z,36.16
2022-11-17T11:02:44.224Z,36.15
2022-11-17T11:05:10.598Z,36.10
2022-11-17T11:07:37.117Z,36.25
2022-11-17T11:10:03.416Z,36.30
2022-11-17T11:12:29.835Z,36.28
2022-11-17T11:14:56.207Z,36.33
2022-11-17T11:17:22.599Z,36.21
2022-11-17T11:19:48.971Z,36.24
2022-11-17T11:22:19.840Z,36.32
2022-11-17T11:24:41.747Z,36.23
2022-11-17T11:27:08.173Z,36.14
2022-11-17T11:29:34.511Z,36.07
2022-11-17T11:32:00.928Z,36.04
2022-11-17T11:34:27.319Z,36.08
2022-11-17T11:36:53.711Z,35.93
2022-11-17T11:39:20.071Z,35.99
2022-11-17T11:41:46.465Z,36.11
2022-11-17T11:44:12.805Z,36.11
2022-11-17T11:46:39.202Z,36.08
2022-11-17T11:49:05.556Z,36.15
2022-11-17T11:51:32.027Z,35.83
2022-11-17T11:53:58.385Z,35.83
2022-11-17T11:56:24.779Z,36.07
2022-11-17T11:58:51.133Z,36.42
2022-11-17T12:01:17.525Z,36.42
2022-11-17T12:03:43.948Z,36.07
2022-11-17T12:06:10.286Z,36.16
2022-11-17T12:08:36.635Z,36.24
2022-11-17T12:11:03.038Z,36.46
2022-11-17T12:13:29.387Z,36.16
2022-11-17T12:15:55.792Z,36.16
2022-11-17T12:18:22.138Z,36.07
2022-11-17T12:20:48.544Z,36.07
2022-11-17T12:23:14.918Z,35.93
2022-11-17T12:25:41.322Z,36.09
2022-11-17T12:28:07.703Z,36.14
2022-11-17T12:30:34.107Z,36.14
2022-11-17T12:33:00.466Z,36.10
2022-11-17T12:35:26.863Z,36.23
2022-11-17T12:37:53.216Z,36.23
2022-11-17T12:40:19.610Z,36.11
2022-11-17T12:42:45.967Z,36.11
2022-11-17T12:45:12.414Z,36.21
2022-11-17T12:47:38.820Z,36.09
2022-11-17T12:50:05.160Z,36.33
2022-11-17T12:52:31.512Z,36.13
2022-11-17T12:54:57.917Z,36.13
2022-11-17T12:57:24.277Z,36.10
2022-11-17T12:59:50.718Z,36.03
2022-11-17T13:02:17.085Z,36.09
2022-11-17T13:04:49.301Z,36.14
2022-11-17T13:07:09.936Z,35.87
2022-11-17T13:09:36.277Z,35.87
2022-11-17T13:12:02.633Z,36.10
2022-11-17T13:14:29.028Z,36.09
2022-11-17T13:16:55.378Z,36.09
2022-11-17T13:19:21.785Z,36.09
2022-11-17T13:21:48.171Z,36.14
2022-11-17T13:24:14.868Z,36.17
2022-11-17T13:26:40.958Z,36.17
2022-11-17T13:29:07.332Z,36.46
2022-11-17T13:31:33.682Z,36.61
2022-11-17T13:34:00.117Z,36.13
2022-11-17T13:36:27.743Z,35.87
2022-11-17T13:38:52.836Z,35.87
2022-11-17T13:41:19.198Z,36.21
2022-11-17T13:43:45.595Z,36.32
2022-11-17T13:46:11.953Z,36.35
2022-11-17T13:48:38.379Z,36.46
2022-11-17T13:51:04.730Z,36.46
2022-11-17T13:53:31.236Z,36.29
2022-11-17T13:55:57.586Z,36.29
2022-11-17T13:58:26.648Z,35.99
2022-11-17T14:00:50.492Z,35.99
2022-11-17T14:03:16.775Z,36.19
2022-11-17T14:05:43.126Z,36.19
2022-11-17T14:08:09.554Z,36.24
2022-11-17T14:10:35.916Z,36.38
2022-11-17T14:13:02.344Z,36.40
2022-11-17T14:15:28.763Z,36.42
2022-11-17T14:17:55.161Z,36.53
2022-11-17T14:20:21.556Z,36.10
2022-11-17T14:22:47.937Z,36.10
2022-11-17T14:25:14.294Z,36.33
2022-11-17T14:27:40.652Z,36.31
2022-11-17T14:30:07.041Z,36.26
2022-11-17T14:32:33.389Z,36.31
2022-11-17T14:34:59.790Z,36.31
2022-11-17T14:37:26.148Z,36.33
2022-11-17T14:39:52.557Z,36.22
2022-11-17T14:42:18.922Z,36.22
2022-11-17T14:44:45.309Z,36.41
2022-11-17T14:47:11.669Z,36.43
2022-11-17T14:49:38.087Z,36.54
2022-11-17T14:52:04.472Z,36.54
2022-11-17T14:54:30.876Z,36.58
2022-11-17T14:56:57.232Z,36.58
2022-11-17T14:59:23.662Z,36.48
2022-11-17T15:01:50.021Z,36.83
2022-11-17T15:04:48.151Z,36.83
2022-11-17T15:06:42.756Z,36.64
2022-11-17T15:09:09.192Z,36.64
2022-11-17T15:11:39.398Z,36.41
2022-11-17T15:14:01.947Z,36.38
2022-11-17T15:16:28.303Z,36.37
2022-11-17T15:18:54.709Z,36.38
2022-11-17T15:21:21.058Z,36.17
2022-11-17T15:23:49.146Z,36.17
2022-11-17T15:26:13.818Z,36.45
2022-11-17T15:28:40.237Z,36.41
2022-11-17T15:31:06.587Z,36.45
2022-11-17T15:33:32.972Z,36.50
2022-11-17T15:35:59.322Z,36.34
2022-11-17T15:38:25.713Z,36.41
2022-11-17T15:40:52.066Z,36.42
2022-11-17T15:43:18.484Z,36.36
2022-11-17T15:45:44.920Z,36.69
2022-11-17T15:48:16.096Z,36.31
2022-11-17T15:50:37.656Z,36.31
2022-11-17T15:53:04.956Z,36.29
2022-11-17T15:55:30.440Z,36.39
2022-11-17T15:57:56.869Z,36.28
2022-11-17T16:00:23.221Z,36.05
2022-11-17T16:02:55.670Z,36.05
2022-11-17T16:05:15.995Z,36.21
2022-11-17T16:07:42.528Z,36.06
2022-11-17T16:10:08.773Z,36.06
2022-11-17T16:12:36.778Z,36.03
2022-11-17T16:15:01.521Z,36.10
2022-11-17T16:17:27.940Z,36.28
2022-11-17T16:19:54.298Z,36.08
2022-11-17T16:22:20.694Z,35.85
2022-11-17T16:24:47.061Z,36.04
2022-11-17T16:27:13.787Z,36.17
2022-11-17T16:29:39.835Z,36.20
2022-11-17T16:32:06.228Z,36.20
2022-11-17T16:34:32.595Z,35.89
2022-11-17T16:36:58.998Z,35.89
2022-11-17T16:39:25.340Z,36.17
2022-11-17T16:41:51.762Z,36.16
2022-11-17T16:44:18.181Z,36.11
2022-11-17T16:46:47.010Z,36.11
2022-11-17T16:49:13.486Z,36.08
2022-11-17T16:51:41.127Z,36.12
2022-11-17T16:54:06.168Z,36.15
2022-11-17T16:56:32.555Z,36.07
2022-11-17T16:58:58.922Z,36.13
2022-11-17T17:01:25.331Z,36.13
2022-11-17T17:03:51.668Z,36.06
2022-11-17T17:06:18.055Z,35.99
2022-11-17T17:08:44.432Z,35.98
2022-11-17T17:11:10.821Z,35.68
2022-11-17T17:13:37.249Z,35.68
2022-11-17T17:16:03.649Z,35.88
2022-11-17T17:18:30.020Z,35.88
2022-11-17T17:20:56.405Z,36.12
2022-11-17T17:23:22.760Z,36.12
2022-11-17T17:25:49.150Z,35.97
2022-11-17T17:28:15.499Z,35.96
2022-11-17T17:30:41.903Z,35.99
2022-11-17T17:33:08.245Z,35.99
2022-11-17T17:35:34.637Z,35.96
2022-11-17T17:38:00.985Z,35.99
2022-11-17T17:40:27.375Z,35.97
2022-11-17T17:42:53.823Z,35.97
2022-11-17T17:45:20.270Z,36.01
2022-11-17T17:47:46.639Z,36.03
2022-11-17T17:50:13.043Z,35.95
2022-11-17T17:52:39.376Z,35.95
2022-11-17T17:55:05.773Z,35.92
2022-11-17T17:57:34.070Z,35.95
2022-11-17T17:59:58.543Z,35.95
2022-11-17T18:02:24.890Z,35.90
2022-11-17T18:04:51.281Z,35.90
2022-11-17T18:07:17.700Z,35.87
2022-11-17T18:09:44.063Z,35.93
2022-11-17T18:12:10.415Z,35.89
2022-11-17T18:14:36.811Z,35.85
2022-11-17T18:17:03.160Z,35.82
2022-11-17T18:19:32.926Z,35.66
2022-11-17T18:21:55.904Z,35.88
2022-11-17T18:24:22.330Z,35.88
2022-11-17T18:26:48.672Z,35.75
2022-11-17T18:29:15.594Z,35.73
2022-11-17T18:31:41.439Z,35.76
2022-11-17T18:34:07.835Z,35.79
2022-11-17T18:36:35.313Z,35.76
2022-11-17T18:39:00.567Z,35.69
2022-11-17T18:41:26.916Z,35.69
2022-11-17T18:43:53.321Z,35.57
2022-11-17T18:46:19.746Z,35.70
2022-11-17T18:48:46.142Z,35.70
2022-11-17T18:51:20.843Z,35.65
2022-11-17T18:53:38.897Z,35.68
2022-11-17T18:56:05.340Z,35.62
2022-11-17T18:58:31.731Z,35.62
2022-11-17T19:00:58.119Z,35.96
2022-11-17T19:03:24.472Z,35.62
2022-11-17T19:05:50.823Z,35.65
2022-11-17T19:08:17.218Z,35.67
2022-11-17T19:10:43.565Z,35.64
2022-11-17T19:13:09.962Z,35.57
2022-11-17T19:15:36.313Z,35.82
2022-11-17T19:18:02.743Z,35.82
2022-11-17T19:20:29.100Z,35.74
2022-11-17T19:22:55.490Z,35.69
2022-11-17T19:25:21.840Z,35.73
2022-11-17T19:27:48.254Z,35.70
2022-11-17T19:30:14.615Z,35.71
2022-11-17T19:32:41.037Z,36.05
2022-11-17T19:35:15.758Z,36.05
2022-11-17T19:37:33.850Z,35.77
2022-11-17T19:40:00.201Z,35.80
2022-11-17T19:42:26.594Z,35.80
2022-11-17T19:44:52.938Z,35.78
2022-11-17T19:47:19.344Z,35.73
2022-11-17T19:49:45.702Z,35.70
2022-11-17T19:52:12.096Z,35.76
2022-11-17T19:54:38.454Z,35.77
2022-11-17T19:57:04.876Z,36.05
2022-11-17T19:59:31.227Z,35.74
2022-11-17T20:01:57.689Z,35.74
2022-11-17T20:04:23.995Z,35.83
2022-11-17T20:06:50.404Z,35.78
2022-11-17T20:09:17.113Z,35.82
2022-11-17T20:11:43.169Z,35.71
2022-11-17T20:14:09.526Z,35.71
2022-11-17T20:16:35.972Z,35.85
2022-11-17T20:19:02.357Z,35.99
2022-11-17T20:21:28.740Z,35.99
2022-11-17T20:23:55.119Z,36.05
2022-11-17T20:26:21.513Z,36.05
2022-11-17T20:28:47.948Z,36.00
2022-11-17T20:31:14.249Z,35.64
2022-11-17T20:33:40.599Z,35.64
2022-11-17T20:36:06.990Z,35.75
2022-11-17T20:38:33.361Z,35.75
2022-11-17T20:40:59.755Z,35.96
2022-11-17T20:43:26.107Z,36.21
2022-11-17T20:45:52.500Z,35.90
2022-11-17T20:48:18.861Z,35.86
2022-11-17T20:50:45.257Z,35.86
2022-11-17T20:53:11.597Z,35.94
2022-11-17T20:55:37.993Z,35.94
2022-11-17T20:58:04.341Z,35.68
2022-11-17T21:00:30.761Z,35.68
2022-11-17T21:02:57.116Z,35.92
2022-11-17T21:05:23.500Z,35.87
2022-11-17T21:07:49.844Z,35.98
2022-11-17T21:10:16.238Z,35.98
2022-11-17T21:12:42.593Z,35.89
2022-11-17T21:15:09.002Z,35.99
2022-11-17T21:17:35.415Z,36.00
2022-11-17T21:20:01.765Z,36.01
2022-11-17T21:22:28.118Z,35.99
2022-11-17T21:24:54.544Z,36.03
2022-11-17T21:27:20.886Z,35.99
2022-11-17T21:29:47.277Z,36.01
2022-11-17T21:32:13.632Z,36.03
2022-11-17T21:34:40.029Z,36.04
2022-11-17T21:37:07.480Z,35.97
2022-11-17T21:39:33.873Z,35.97
2022-11-17T21:42:00.262Z,36.07
2022-11-17T21:44:26.665Z,36.01
2022-11-17T21:46:53.019Z,36.04
2022-11-17T21:49:19.405Z,36.05
2022-11-17T21:51:45.755Z,36.08
2022-11-17T21:54:12.152Z,35.79
2022-11-17T21:56:38.535Z,35.79
2022-11-17T21:59:04.924Z,36.06
2022-11-17T22:01:31.385Z,36.11
2022-11-17T22:03:57.677Z,36.11
2022-11-17T22:06:24.035Z,36.16
2022-11-17T22:08:50.445Z,36.15
2022-11-17T22:11:16.792Z,36.11
2022-11-17T22:13:43.199Z,36.11
2022-11-17T22:16:09.573Z,36.13
2022-11-17T22:18:35.977Z,36.12
2022-11-17T22:21:02.377Z,36.16
2022-11-17T22:23:28.735Z,36.13
2022-11-17T22:25:55.083Z,36.12
2022-11-17T22:28:21.497Z,36.17
2022-11-17T22:30:47.851Z,36.17
2022-11-17T22:33:14.253Z,36.14
2022-11-17T22:35:40.777Z,36.14
2022-11-17T22:38:07.174Z,36.17
2022-11-17T22:40:33.532Z,36.18
2022-11-17T22:43:04.132Z,36.17
2022-11-17T22:45:26.300Z,36.14
2022-11-17T22:47:52.703Z,36.17
2022-11-17T22:50:19.053Z,36.15
2022-11-17T22:52:45.436Z,36.20
2022-11-17T22:55:12.003Z,36.21
2022-11-17T22:57:38.396Z,36.19
2022-11-17T23:00:04.758Z,36.21
2022-11-17T23:02:31.147Z,36.21
2022-11-17T23:04:57.504Z,36.20
2022-11-17T23:07:23.965Z,36.18
2022-11-17T23:09:50.246Z,36.21
2022-11-17T23:12:16.674Z,36.22
2022-11-17T23:14:43.025Z,36.21
2022-11-17T23:17:09.424Z,36.26
2022-11-17T23:19:35.774Z,36.21
2022-11-17T23:22:02.168Z,36.25
2022-11-17T23:24:28.518Z,36.22
2022-11-17T23:26:54.921Z,36.18
2022-11-17T23:29:21.281Z,36.22
2022-11-17T23:31:47.675Z,36.23
2022-11-17T23:34:14.030Z,36.27
2022-11-17T23:36:40.419Z,36.24
2022-11-17T23:39:06.813Z,36.21
2022-11-17T23:41:33.211Z,36.26
2022-11-17T23:43:59.565Z,36.24
2022-11-17T23:46:25.949Z,36.26
2022-11-17T23:48:52.305Z,36.22
2022-11-17T23:51:18.696Z,36.26
2022-11-17T23:53:45.046Z,36.30
2022-11-17T23:56:11.439Z,36.33
2022-11-17T23:58:37.786Z,36.32
